Time;durP1;ratioP1;P1;durP2;ratioP2;P2;SDS_P1;SDS_P2;PMS_P1;PMS_P2;Temp;Humidity;BMP_temperature;BMP_pressure;BME280_temperature;BME280_humidity;BME280_pressure;Samples;Min_cycle;Max_cycle;Signal;HPM_P1;HPM_P2
2021/07/07 00:00:01;;;;;;;2.12;1.40;;;17.00;99.90;;;;;;1925190;74;21474;-83
2021/07/07 00:02:32;;;;;;;1.40;1.10;;;17.00;99.90;;;;;;1933461;74;21656;-83
2021/07/07 00:04:58;;;;;;;2.25;1.60;;;17.10;99.90;;;;;;1935298;74;21128;-82
2021/07/07 00:07:37;;;;;;;1.42;1.20;;;17.10;99.90;;;;;;1935696;74;21592;-81
2021/07/07 00:10:13;;;;;;;2.85;1.30;;;17.00;99.90;;;;;;1930476;74;21066;-81
2021/07/07 00:12:53;;;;;;;1.85;1.45;;;17.00;99.90;;;;;;1935416;74;21559;-83
2021/07/07 00:15:25;;;;;;;2.80;1.50;;;17.00;99.90;;;;;;1935258;73;21078;-82
2021/07/07 00:17:58;;;;;;;1.60;1.50;;;17.10;99.90;;;;;;1931326;74;21078;-82
2021/07/07 00:20:24;;;;;;;2.02;1.50;;;17.10;99.90;;;;;;1935357;74;21066;-81
2021/07/07 00:23:04;;;;;;;3.37;1.65;;;17.00;99.90;;;;;;1935647;74;21137;-83
2021/07/07 00:25:32;;;;;;;2.65;1.62;;;17.00;99.90;;;;;;1934675;74;21086;-82
2021/07/07 00:28:03;;;;;;;1.55;1.37;;;17.10;99.90;;;;;;1935687;74;21067;-82
2021/07/07 00:30:29;;;;;;;2.47;1.35;;;17.10;99.90;;;;;;1934812;74;21039;-82
2021/07/07 00:33:00;;;;;;;2.05;1.75;;;17.00;99.90;;;;;;1935390;74;21032;-83
2021/07/07 00:35:27;;;;;;;2.83;1.95;;;16.90;99.90;;;;;;1935431;74;21051;-81
2021/07/07 00:37:53;;;;;;;3.15;1.62;;;16.90;99.90;;;;;;1935596;74;21059;-81
2021/07/07 00:40:20;;;;;;;5.62;1.77;;;16.90;99.90;;;;;;1935278;74;21130;-80
2021/07/07 00:42:49;;;;;;;1.40;1.30;;;16.90;99.90;;;;;;1935420;74;21067;-82
2021/07/07 00:45:17;;;;;;;1.87;1.37;;;17.00;99.90;;;;;;1935240;74;21036;-82
2021/07/07 00:47:45;;;;;;;2.05;1.10;;;17.20;99.90;;;;;;1935219;74;21185;-82
2021/07/07 00:50:11;;;;;;;3.37;1.60;;;17.20;99.90;;;;;;1935306;74;21074;-81
2021/07/07 00:52:37;;;;;;;7.72;1.57;;;17.30;99.90;;;;;;1935226;74;21151;-82
2021/07/07 00:55:05;;;;;;;1.52;1.17;;;17.20;99.90;;;;;;1935384;74;21140;-83
2021/07/07 00:57:34;;;;;;;1.20;1.10;;;17.20;99.90;;;;;;1935192;74;21036;-83
2021/07/07 01:00:04;;;;;;;1.57;1.27;;;17.20;99.90;;;;;;1934841;73;21309;-83
2021/07/07 01:02:32;;;;;;;1.67;0.98;;;17.20;99.90;;;;;;1933517;74;21062;-80
2021/07/07 01:04:55;;;;;;;3.83;1.62;;;17.20;99.90;;;;;;1933617;74;21074;-82
2021/07/07 01:07:21;;;;;;;1.30;1.20;;;17.20;99.90;;;;;;1935260;74;21051;-82
2021/07/07 01:09:50;;;;;;;2.83;1.37;;;17.10;99.90;;;;;;1935192;74;21050;-83
2021/07/07 01:12:21;;;;;;;1.20;1.00;;;17.20;99.90;;;;;;1934972;73;21070;-83
2021/07/07 01:14:45;;;;;;;;;;;17.10;99.90;;;;;;1937413;74;21063;-82
2021/07/07 01:17:14;;;;;;;1.10;1.05;;;17.20;99.90;;;;;;1935272;74;20379;-83
2021/07/07 01:19:39;;;;;;;1.72;1.40;;;17.20;99.90;;;;;;1935568;74;21198;-82
2021/07/07 01:22:06;;;;;;;1.45;1.35;;;17.20;99.90;;;;;;1937915;73;21148;-83
2021/07/07 01:24:32;;;;;;;1.47;1.32;;;17.20;99.90;;;;;;1937451;73;21071;-81
2021/07/07 01:26:58;;;;;;;2.52;1.95;;;17.20;99.90;;;;;;1938686;74;21112;-83
2021/07/07 01:29:24;;;;;;;2.72;2.22;;;17.00;99.90;;;;;;1936924;73;21112;-82
2021/07/07 01:31:53;;;;;;;2.98;2.08;;;16.90;99.90;;;;;;1936831;74;21074;-83
2021/07/07 01:34:18;;;;;;;4.20;2.25;;;16.80;99.90;;;;;;1935528;74;21140;-83
2021/07/07 01:36:44;;;;;;;1.92;1.70;;;16.90;99.90;;;;;;1935485;74;21063;-82
2021/07/07 01:39:10;;;;;;;2.50;1.60;;;17.00;99.90;;;;;;1935225;74;21106;-83
2021/07/07 01:41:41;;;;;;;2.25;1.90;;;17.00;99.90;;;;;;1935389;74;21075;-83
2021/07/07 01:44:07;;;;;;;4.37;1.80;;;17.00;99.90;;;;;;1935533;74;21536;-83
2021/07/07 01:46:33;;;;;;;3.20;1.60;;;17.00;99.90;;;;;;1935223;74;21485;-83
2021/07/07 01:48:59;;;;;;;3.35;1.50;;;17.00;99.90;;;;;;1935186;74;21070;-81
2021/07/07 01:51:25;;;;;;;6.53;1.70;;;16.90;99.90;;;;;;1935114;74;21076;-82
2021/07/07 01:53:57;;;;;;;3.02;1.40;;;16.90;99.90;;;;;;1935042;74;21119;-82
2021/07/07 01:56:23;;;;;;;5.95;1.90;;;16.90;99.90;;;;;;1935200;74;21136;-83
2021/07/07 01:58:50;;;;;;;4.70;2.25;;;16.70;99.90;;;;;;1935415;74;21098;-82
2021/07/07 02:01:18;;;;;;;3.45;2.02;;;16.70;99.90;;;;;;1935421;74;21067;-83
2021/07/07 02:03:44;;;;;;;3.42;2.20;;;16.70;99.90;;;;;;1935501;74;21392;-83
2021/07/07 02:06:10;;;;;;;5.17;2.20;;;16.70;99.90;;;;;;1935342;74;21615;-81
2021/07/07 02:08:36;;;;;;;2.95;1.87;;;16.70;99.90;;;;;;1935160;74;21396;-82
2021/07/07 02:11:02;;;;;;;4.85;1.95;;;16.60;99.90;;;;;;1935115;74;21498;-83
2021/07/07 02:13:29;;;;;;;2.50;1.72;;;16.60;99.90;;;;;;1935363;74;21470;-83
2021/07/07 02:15:55;;;;;;;3.22;2.08;;;16.70;99.90;;;;;;1935125;74;21066;-81
2021/07/07 02:18:21;;;;;;;2.52;2.05;;;16.70;99.90;;;;;;1935209;74;21043;-82
2021/07/07 02:20:47;;;;;;;2.42;1.55;;;16.60;99.90;;;;;;1935222;74;21062;-83
2021/07/07 02:23:13;;;;;;;3.30;1.65;;;16.70;99.90;;;;;;1935257;74;21067;-84
2021/07/07 02:25:39;;;;;;;1.90;1.72;;;16.70;99.90;;;;;;1935132;74;21122;-83
2021/07/07 02:28:06;;;;;;;6.20;1.52;;;16.80;99.90;;;;;;1935167;74;21063;-80
2021/07/07 02:30:32;;;;;;;1.85;1.67;;;16.90;99.90;;;;;;1935061;74;21136;-79
2021/07/07 02:32:58;;;;;;;3.77;1.60;;;16.90;99.90;;;;;;1935255;74;21063;-80
2021/07/07 02:35:24;;;;;;;3.92;1.80;;;16.90;99.90;;;;;;1935073;74;21564;-81
2021/07/07 02:37:52;;;;;;;2.75;1.45;;;16.90;99.90;;;;;;1935275;74;21491;-81
2021/07/07 02:40:18;;;;;;;4.67;1.70;;;16.80;99.90;;;;;;1934926;74;21067;-81
2021/07/07 02:42:44;;;;;;;1.80;1.60;;;16.80;99.90;;;;;;1935279;74;21152;-80
2021/07/07 02:45:10;;;;;;;2.15;1.55;;;16.70;99.90;;;;;;1935088;74;21130;-79
2021/07/07 02:47:36;;;;;;;5.35;1.60;;;16.70;99.90;;;;;;1935288;74;21060;-77
2021/07/07 02:50:02;;;;;;;1.98;1.60;;;16.80;99.90;;;;;;1935089;74;21035;-79
2021/07/07 02:52:29;;;;;;;2.65;1.70;;;16.80;99.90;;;;;;1935188;74;21067;-81
2021/07/07 02:54:55;;;;;;;2.58;1.60;;;16.90;99.90;;;;;;1935065;74;21062;-82
2021/07/07 02:57:21;;;;;;;2.92;1.57;;;16.90;99.90;;;;;;1935281;74;21149;-82
2021/07/07 02:59:47;;;;;;;3.52;1.75;;;16.80;99.90;;;;;;1935209;74;21039;-82
2021/07/07 03:02:13;;;;;;;4.42;2.30;;;16.80;99.90;;;;;;1935445;74;21066;-83
2021/07/07 03:04:39;;;;;;;4.97;1.50;;;16.90;99.90;;;;;;1935261;74;21144;-83
2021/07/07 03:07:05;;;;;;;5.58;2.05;;;17.00;99.90;;;;;;1935647;74;21028;-82
2021/07/07 03:09:31;;;;;;;2.10;1.77;;;17.00;99.90;;;;;;1936461;74;21032;-83
2021/07/07 03:11:58;;;;;;;2.30;1.85;;;16.90;99.90;;;;;;1935689;74;21148;-82
2021/07/07 03:14:24;;;;;;;2.45;1.60;;;17.00;99.90;;;;;;1935282;74;21136;-81
2021/07/07 03:16:50;;;;;;;2.62;1.85;;;17.00;99.90;;;;;;1935221;74;21114;-81
2021/07/07 03:19:16;;;;;;;1.62;1.50;;;17.00;99.90;;;;;;1935255;74;21063;-81
2021/07/07 03:21:42;;;;;;;2.27;1.90;;;17.00;99.90;;;;;;1935279;74;21137;-82
2021/07/07 03:24:10;;;;;;;2.33;1.45;;;16.90;99.90;;;;;;1935269;74;21121;-82
2021/07/07 03:26:36;;;;;;;1.98;1.77;;;16.90;99.90;;;;;;1935708;74;21071;-80
2021/07/07 03:29:02;;;;;;;2.22;1.55;;;17.00;99.90;;;;;;1935238;74;21133;-81
2021/07/07 03:31:28;;;;;;;1.82;1.65;;;16.90;99.90;;;;;;1935112;74;21067;-79
2021/07/07 03:33:54;;;;;;;2.22;1.70;;;16.90;99.90;;;;;;1935134;74;21058;-79
2021/07/07 03:36:20;;;;;;;5.58;1.42;;;17.00;99.90;;;;;;1935120;74;21086;-80
2021/07/07 03:38:47;;;;;;;4.05;1.72;;;17.00;99.90;;;;;;1935141;74;21071;-79
2021/07/07 03:41:13;;;;;;;2.58;1.72;;;16.90;99.90;;;;;;1935155;74;21063;-78
2021/07/07 03:43:39;;;;;;;2.55;1.72;;;16.80;99.90;;;;;;1935145;74;21141;-80
2021/07/07 03:46:05;;;;;;;1.65;1.50;;;16.80;99.90;;;;;;1935138;73;21083;-80
2021/07/07 03:48:31;;;;;;;2.27;1.70;;;16.70;99.90;;;;;;1935073;74;21474;-81
2021/07/07 03:50:57;;;;;;;2.35;1.67;;;16.60;99.90;;;;;;1935255;74;21595;-82
2021/07/07 03:53:23;;;;;;;4.90;1.77;;;16.50;99.90;;;;;;1935172;74;21505;-82
2021/07/07 03:55:49;;;;;;;2.00;1.57;;;16.60;99.90;;;;;;1935155;74;21474;-82
2021/07/07 03:58:16;;;;;;;2.50;1.98;;;16.60;99.90;;;;;;1936207;73;21540;-83
2021/07/07 04:00:42;;;;;;;2.65;2.05;;;16.60;99.90;;;;;;1935225;74;21475;-83
2021/07/07 04:03:08;;;;;;;2.98;2.20;;;16.70;99.90;;;;;;1937389;74;21140;-81
2021/07/07 04:05:34;;;;;;;2.55;1.95;;;16.80;99.90;;;;;;1938969;73;21071;-83
2021/07/07 04:08:01;;;;;;;3.50;2.20;;;16.80;99.90;;;;;;1940671;74;21110;-83
2021/07/07 04:10:27;;;;;;;2.12;1.90;;;17.00;99.90;;;;;;1933909;73;21071;-84
2021/07/07 04:12:53;;;;;;;2.87;1.92;;;17.00;99.90;;;;;;1935149;74;21133;-81
2021/07/07 04:15:19;;;;;;;5.17;2.30;;;16.90;99.90;;;;;;1937595;73;21086;-81
2021/07/07 04:17:46;;;;;;;2.35;2.15;;;16.80;99.90;;;;;;1935088;74;21004;-82
2021/07/07 04:20:12;;;;;;;1.90;1.80;;;16.70;99.90;;;;;;1935079;74;21067;-83
2021/07/07 04:22:38;;;;;;;5.20;1.85;;;16.90;99.90;;;;;;1935195;74;21066;-84
2021/07/07 04:25:04;;;;;;;2.02;1.90;;;17.00;99.90;;;;;;1935060;74;21058;-82
2021/07/07 04:27:30;;;;;;;2.70;1.98;;;17.00;99.90;;;;;;1935199;74;21180;-84
2021/07/07 04:29:56;;;;;;;4.42;2.05;;;17.10;99.90;;;;;;1935015;74;21055;-83
2021/07/07 04:32:22;;;;;;;3.25;2.27;;;17.10;99.90;;;;;;1935139;74;21062;-82
2021/07/07 04:34:51;;;;;;;2.33;1.98;;;17.10;99.90;;;;;;1935068;74;21129;-83
2021/07/07 04:37:16;;;;;;;1.95;1.80;;;17.10;99.90;;;;;;1934776;74;21070;-82
2021/07/07 04:39:42;;;;;;;2.00;1.50;;;17.00;99.90;;;;;;1935160;74;21140;-81
2021/07/07 04:42:09;;;;;;;1.70;1.60;;;16.90;99.90;;;;;;1935087;74;21059;-83
2021/07/07 04:44:35;;;;;;;2.35;1.57;;;17.00;99.90;;;;;;1935299;74;21153;-84
2021/07/07 04:47:01;;;;;;;1.12;1.10;;;16.90;99.90;;;;;;1935102;74;21128;-81
2021/07/07 04:49:27;;;;;;;1.57;1.12;;;17.00;99.90;;;;;;1935291;74;21137;-83
2021/07/07 04:51:53;;;;;;;3.72;1.17;;;17.10;99.90;;;;;;1935315;74;21065;-82
2021/07/07 04:54:19;;;;;;;3.92;1.10;;;17.30;99.90;;;;;;1935314;74;21058;-83
2021/07/07 04:56:45;;;;;;;1.35;1.10;;;17.30;99.90;;;;;;1935328;74;21066;-84
2021/07/07 04:59:11;;;;;;;2.35;1.10;;;17.00;99.90;;;;;;1935464;74;21056;-80
2021/07/07 05:01:39;;;;;;;4.30;0.88;;;17.00;99.90;;;;;;1935711;74;21136;-83
2021/07/07 05:04:05;;;;;;;0.90;0.75;;;17.00;99.90;;;;;;1935369;74;21063;-82
2021/07/07 05:06:31;;;;;;;1.65;1.00;;;17.10;99.90;;;;;;1935115;74;21107;-78
2021/07/07 05:08:57;;;;;;;2.08;0.80;;;17.10;99.90;;;;;;1935365;74;21059;-78
2021/07/07 05:11:23;;;;;;;0.80;0.80;;;17.00;99.90;;;;;;1935088;74;21036;-77
2021/07/07 05:13:49;;;;;;;4.00;0.70;;;16.80;99.90;;;;;;1935394;74;21055;-77
2021/07/07 05:16:17;;;;;;;1.32;0.80;;;16.80;99.90;;;;;;1935266;74;21572;-78
2021/07/07 05:18:43;;;;;;;0.75;0.72;;;16.90;99.90;;;;;;1935347;74;21132;-77
2021/07/07 05:21:11;;;;;;;4.15;3.42;;;17.00;99.90;;;;;;1935141;74;21166;-78
2021/07/07 05:23:37;;;;;;;1.12;1.02;;;16.80;99.90;;;;;;1935329;74;21492;-77
2021/07/07 05:26:04;;;;;;;2.05;1.15;;;16.70;99.90;;;;;;1935156;74;21492;-77
2021/07/07 05:28:30;;;;;;;2.20;1.10;;;16.60;99.90;;;;;;1935303;74;21156;-77
2021/07/07 05:31:03;;;;;;;2.80;1.10;;;16.70;99.90;;;;;;1935443;74;21051;-79
2021/07/07 05:33:29;;;;;;;1.35;1.10;;;16.70;99.90;;;;;;1934226;74;21070;-74
2021/07/07 05:35:52;;;;;;;0.98;0.90;;;16.80;99.90;;;;;;1934406;74;21541;-77
2021/07/07 05:38:18;;;;;;;2.58;1.10;;;16.80;99.90;;;;;;1935329;74;21469;-78
2021/07/07 05:40:44;;;;;;;0.90;0.85;;;16.90;99.90;;;;;;1935090;74;21514;-78
2021/07/07 05:43:10;;;;;;;2.70;1.00;;;16.80;99.90;;;;;;1935113;74;21864;-77
2021/07/07 05:45:36;;;;;;;0.70;0.70;;;16.80;99.90;;;;;;1939625;73;21475;-76
2021/07/07 05:48:02;;;;;;;1.75;1.20;;;16.80;99.90;;;;;;1936516;74;21063;-77
2021/07/07 05:50:29;;;;;;;0.90;0.90;;;16.70;99.90;;;;;;1936500;74;21116;-77
2021/07/07 05:52:55;;;;;;;0.93;0.93;;;16.60;99.90;;;;;;1938676;73;21039;-74
2021/07/07 05:55:21;;;;;;;1.30;1.17;;;16.70;99.90;;;;;;1938585;73;21059;-75
2021/07/07 05:57:48;;;;;;;2.83;1.20;;;16.70;99.90;;;;;;1936164;74;21054;-75
2021/07/07 06:00:14;;;;;;;2.77;1.10;;;16.70;99.90;;;;;;1935569;74;21056;-75
2021/07/07 06:02:41;;;;;;;0.80;0.80;;;16.70;99.90;;;;;;1937271;73;21122;-76
2021/07/07 06:05:07;;;;;;;1.27;0.70;;;16.60;99.90;;;;;;1937356;73;21152;-77
2021/07/07 06:07:37;;;;;;;1.60;0.82;;;16.60;99.90;;;;;;1948098;74;21139;-79
2021/07/07 06:10:01;;;;;;;1.12;0.90;;;16.60;99.90;;;;;;1942306;74;21098;-78
2021/07/07 06:12:27;;;;;;;0.70;0.60;;;16.60;99.90;;;;;;1935212;74;21148;-78
2021/07/07 06:14:53;;;;;;;0.72;0.72;;;16.40;99.90;;;;;;1935206;74;21140;-78
2021/07/07 06:17:19;;;;;;;1.80;0.80;;;16.70;99.90;;;;;;1935264;74;21055;-78
2021/07/07 06:19:45;;;;;;;1.07;1.00;;;16.60;99.90;;;;;;1934984;74;21059;-77
2021/07/07 06:22:11;;;;;;;4.78;0.90;;;16.70;99.90;;;;;;1935416;74;21075;-77
2021/07/07 06:24:38;;;;;;;1.62;1.22;;;16.70;99.90;;;;;;1935090;74;21068;-78
2021/07/07 06:27:04;;;;;;;3.05;0.70;;;17.00;99.90;;;;;;1935220;74;21028;-78
2021/07/07 06:29:30;;;;;;;1.60;0.70;;;17.00;99.90;;;;;;1935133;74;21063;-78
2021/07/07 06:31:56;;;;;;;1.50;0.70;;;17.30;99.90;;;;;;1935258;74;21067;-78
2021/07/07 06:34:22;;;;;;;1.85;0.78;;;17.20;99.90;;;;;;1935079;74;21068;-78
2021/07/07 06:36:48;;;;;;;3.80;0.80;;;17.30;99.90;;;;;;1935126;74;21032;-78
2021/07/07 06:39:14;;;;;;;0.65;0.65;;;17.20;99.90;;;;;;1935048;74;21070;-78
2021/07/07 06:41:40;;;;;;;2.25;0.85;;;17.20;99.90;;;;;;1912212;74;21571;-77
2021/07/07 06:44:07;;;;;;;1.87;0.80;;;17.20;99.90;;;;;;1935089;74;21503;-77
2021/07/07 06:46:35;;;;;;;2.20;0.68;;;17.30;99.90;;;;;;1935042;74;21428;-77
2021/07/07 06:49:00;;;;;;;1.32;0.60;;;17.40;99.90;;;;;;1935046;74;21117;-77
2021/07/07 06:51:27;;;;;;;1.27;0.70;;;17.40;99.90;;;;;;1935032;74;21062;-78
2021/07/07 06:53:53;;;;;;;2.33;0.78;;;17.10;99.90;;;;;;1935131;74;21541;-78
2021/07/07 06:56:19;;;;;;;2.65;1.05;;;17.00;99.90;;;;;;1935143;74;21545;-78
2021/07/07 06:58:45;;;;;;;1.82;0.88;;;17.00;99.90;;;;;;1935144;74;21061;-78
2021/07/07 07:01:11;;;;;;;1.80;1.00;;;17.30;99.90;;;;;;1935134;74;21176;-79
2021/07/07 07:03:37;;;;;;;0.95;0.70;;;17.40;99.90;;;;;;1935147;74;21132;-78
2021/07/07 07:06:03;;;;;;;1.00;0.70;;;17.30;99.90;;;;;;1935144;74;21032;-77
2021/07/07 07:08:30;;;;;;;2.75;1.00;;;17.40;99.90;;;;;;1935202;74;21062;-77
2021/07/07 07:10:56;;;;;;;4.58;0.68;;;17.60;99.90;;;;;;1935223;74;21136;-77
2021/07/07 07:13:22;;;;;;;5.85;1.30;;;17.70;99.90;;;;;;1935271;74;21067;-77
2021/07/07 07:15:48;;;;;;;4.58;1.12;;;17.60;99.90;;;;;;1935312;74;21125;-78
2021/07/07 07:18:14;;;;;;;6.62;1.15;;;17.60;99.90;;;;;;1935167;74;21027;-77
2021/07/07 07:20:40;;;;;;;2.67;0.80;;;17.60;99.90;;;;;;1935191;74;21094;-77
2021/07/07 07:23:06;;;;;;;0.60;0.60;;;17.60;99.90;;;;;;1935153;74;21043;-78
2021/07/07 07:25:33;;;;;;;2.83;0.85;;;17.50;99.90;;;;;;1935157;74;21070;-78
2021/07/07 07:27:59;;;;;;;1.00;0.78;;;17.40;99.90;;;;;;1935315;74;21056;-78
2021/07/07 07:33:10;;;;;;;1.45;1.02;;;17.30;99.90;;;;;;1911199;75;21141;-77
2021/07/07 07:35:36;;;;;;;1.15;1.00;;;17.30;99.90;;;;;;1916720;74;21129;-77
2021/07/07 07:38:04;;;;;;;1.12;0.82;;;17.40;99.90;;;;;;1912370;75;21070;-77
2021/07/07 07:40:37;;;;;;;1.37;1.05;;;17.40;99.90;;;;;;1912130;75;21039;-78
2021/07/07 07:43:01;;;;;;;4.70;1.30;;;17.50;99.90;;;;;;1911857;75;21061;-78
2021/07/07 07:45:27;;;;;;;3.65;1.10;;;17.70;99.90;;;;;;1912278;75;21113;-78
2021/07/07 07:47:53;;;;;;;2.27;1.02;;;18.00;99.90;;;;;;1914587;74;21070;-78
2021/07/07 07:50:19;;;;;;;1.55;0.90;;;18.00;99.90;;;;;;1913884;74;21024;-78
2021/07/07 07:52:45;;;;;;;4.05;1.92;;;18.30;99.90;;;;;;1911943;74;21136;-78
2021/07/07 07:55:11;;;;;;;1.82;0.98;;;18.20;99.90;;;;;;1911934;75;21058;-78
2021/07/07 07:57:37;;;;;;;2.08;0.98;;;18.20;99.90;;;;;;1912094;74;21059;-79
2021/07/07 08:00:04;;;;;;;7.53;3.10;;;18.10;99.90;;;;;;1911988;74;21058;-78
2021/07/07 08:02:30;;;;;;;1.62;1.00;;;17.90;99.90;;;;;;1914150;74;21136;-77
2021/07/07 08:04:56;;;;;;;2.25;1.70;;;18.00;99.90;;;;;;1911981;74;21067;-77
2021/07/07 08:07:26;;;;;;;1.35;0.93;;;18.00;99.90;;;;;;1911794;75;21040;-77
2021/07/07 08:09:50;;;;;;;2.12;1.10;;;18.10;99.90;;;;;;1911719;74;21152;-76
2021/07/07 08:12:16;;;;;;;1.60;0.75;;;18.00;99.90;;;;;;1911808;75;21140;-78
2021/07/07 08:14:42;;;;;;;3.72;1.30;;;18.00;99.90;;;;;;1911989;74;21062;-79
2021/07/07 08:17:08;;;;;;;1.82;1.15;;;18.00;99.90;;;;;;1912127;75;21015;-76
2021/07/07 08:19:34;;;;;;;1.45;0.90;;;18.10;99.90;;;;;;1912188;74;21062;-77
2021/07/07 08:22:00;;;;;;;2.72;1.20;;;18.00;99.90;;;;;;1911903;75;21132;-77
2021/07/07 08:24:27;;;;;;;1.50;1.30;;;18.10;99.90;;;;;;1912009;75;21152;-77
2021/07/07 08:26:54;;;;;;;2.58;1.52;;;17.70;99.90;;;;;;1911738;75;21082;-76
2021/07/07 08:29:21;;;;;;;2.47;1.10;;;17.60;99.90;;;;;;1911959;74;21090;-78
2021/07/07 08:31:47;;;;;;;2.22;1.12;;;17.60;99.90;;;;;;1911771;74;21071;-77
2021/07/07 08:34:13;;;;;;;9.90;1.20;;;17.60;99.90;;;;;;1911984;74;21144;-77
2021/07/07 08:36:39;;;;;;;2.47;1.27;;;17.50;99.90;;;;;;1911635;75;21066;-77
2021/07/07 08:39:05;;;;;;;3.87;2.50;;;17.40;99.90;;;;;;1911805;74;21070;-76
2021/07/07 08:41:33;;;;;;;2.27;1.52;;;17.50;99.90;;;;;;1911725;74;21039;-77
2021/07/07 08:43:59;;;;;;;2.45;1.50;;;17.50;99.90;;;;;;1911995;74;21078;-77
2021/07/07 08:46:25;;;;;;;3.67;2.08;;;17.60;99.90;;;;;;1911957;74;21144;-78
2021/07/07 08:48:51;;;;;;;3.95;2.00;;;17.80;99.90;;;;;;1911871;74;21150;-78
2021/07/07 08:51:17;;;;;;;8.05;1.60;;;18.00;99.90;;;;;;1911843;75;21087;-77
2021/07/07 08:53:45;;;;;;;3.70;1.50;;;18.20;99.90;;;;;;1911784;74;21458;-76
2021/07/07 08:56:12;;;;;;;1.65;1.17;;;18.40;99.90;;;;;;1911709;74;21116;-77
2021/07/07 08:58:39;;;;;;;2.95;1.17;;;18.50;99.90;;;;;;1930947;74;21066;-78
2021/07/07 09:01:10;;;;;;;1.02;0.93;;;18.40;99.90;;;;;;1945609;73;21095;-78
2021/07/07 09:03:33;;;;;;;4.03;1.32;;;18.30;99.90;;;;;;1944063;73;21126;-77
2021/07/07 09:06:01;;;;;;;3.75;0.85;;;18.40;99.90;;;;;;1910267;75;21032;-77
2021/07/07 09:08:27;;;;;;;2.40;1.10;;;18.20;99.90;;;;;;1910023;75;21114;-78
2021/07/07 09:10:53;;;;;;;1.70;0.90;;;18.20;99.90;;;;;;1910254;75;21218;-78
2021/07/07 09:13:21;;;;;;;4.17;1.30;;;18.30;99.90;;;;;;1910149;75;21071;-77
2021/07/07 09:15:47;;;;;;;6.25;1.10;;;18.40;99.90;;;;;;1910023;75;21191;-76
2021/07/07 09:18:13;;;;;;;1.75;0.70;;;18.70;99.90;;;;;;1910609;74;21040;-76
2021/07/07 09:20:42;;;;;;;2.65;1.10;;;19.00;99.90;;;;;;1912923;75;21114;-77
2021/07/07 09:23:09;;;;;;;2.33;0.82;;;19.20;99.90;;;;;;1911966;75;21463;-77
2021/07/07 09:25:35;;;;;;;2.90;1.00;;;19.40;99.90;;;;;;1910029;75;21455;-77
2021/07/07 09:28:01;;;;;;;1.55;0.93;;;19.40;99.90;;;;;;1910378;75;21474;-77
2021/07/07 09:30:27;;;;;;;3.50;1.10;;;19.70;99.90;;;;;;1910293;75;21627;-78
2021/07/07 09:32:53;;;;;;;4.10;1.10;;;19.70;99.90;;;;;;1910415;75;21452;-78
2021/07/07 09:35:19;;;;;;;8.45;1.22;;;20.00;99.90;;;;;;1910179;75;21478;-77
2021/07/07 09:37:47;;;;;;;1.42;0.98;;;20.40;99.90;;;;;;1910287;75;21549;-76
2021/07/07 09:40:13;;;;;;;4.75;1.57;;;20.80;99.90;;;;;;1887469;75;21074;-76
2021/07/07 09:42:39;;;;;;;0.95;0.82;;;20.90;99.90;;;;;;1910281;75;21036;-77
2021/07/07 09:45:06;;;;;;;2.70;1.02;;;20.80;99.90;;;;;;1910249;74;21047;-78
2021/07/07 09:47:32;;;;;;;2.47;1.22;;;20.80;99.90;;;;;;1910215;75;21141;-78
2021/07/07 09:49:58;;;;;;;7.05;1.40;;;20.40;99.90;;;;;;1910253;75;21487;-77
2021/07/07 09:52:24;;;;;;;3.42;1.10;;;20.20;99.90;;;;;;1910247;75;21508;-78
2021/07/07 09:54:50;;;;;;;3.10;2.22;;;20.00;99.90;;;;;;1910169;75;21521;-78
2021/07/07 09:57:16;;;;;;;6.62;2.00;;;20.00;99.90;;;;;;1910264;75;21486;-78
2021/07/07 09:59:42;;;;;;;2.42;1.42;;;20.00;99.90;;;;;;1884198;75;21524;-78
2021/07/07 10:02:08;;;;;;;3.77;1.20;;;20.00;99.90;;;;;;1910269;75;21434;-82
2021/07/07 10:04:35;;;;;;;4.03;1.15;;;19.80;99.90;;;;;;1910028;75;21565;-77
2021/07/07 10:07:01;;;;;;;6.42;1.00;;;19.80;99.90;;;;;;1910254;74;21071;-76
2021/07/07 10:09:27;;;;;;;2.08;1.20;;;20.00;99.90;;;;;;1910265;75;21048;-76
2021/07/07 10:11:53;;;;;;;6.70;1.07;;;20.20;99.90;;;;;;1910172;75;21109;-76
2021/07/07 10:14:19;;;;;;;1.67;1.10;;;20.20;99.90;;;;;;1910566;75;21156;-77
2021/07/07 10:16:48;;;;;;;3.67;1.20;;;20.20;99.90;;;;;;1912545;75;21028;-76
2021/07/07 10:19:14;;;;;;;1.07;0.90;;;20.40;99.90;;;;;;1912119;75;21103;-77
2021/07/07 10:21:40;;;;;;;1.42;1.00;;;20.50;99.90;;;;;;1912765;75;21094;-77
2021/07/07 10:24:06;;;;;;;4.15;1.25;;;20.70;99.90;;;;;;1911128;75;21039;-77
2021/07/07 10:26:32;;;;;;;1.92;1.05;;;20.70;99.90;;;;;;1913901;75;21151;-76
2021/07/07 10:28:59;;;;;;;0.80;0.80;;;20.70;99.90;;;;;;1912767;75;21197;-77
2021/07/07 10:31:26;;;;;;;2.35;1.00;;;20.60;99.90;;;;;;1910387;75;21052;-76
2021/07/07 10:33:52;;;;;;;3.87;2.00;;;20.80;99.90;;;;;;1911653;75;21067;-77
2021/07/07 10:36:18;;;;;;;1.37;1.07;;;21.20;99.90;;;;;;1915429;75;21184;-77
2021/07/07 10:38:44;;;;;;;2.95;1.32;;;21.00;99.90;;;;;;1910692;75;21091;-78
2021/07/07 10:41:10;;;;;;;4.10;1.27;;;21.00;99.90;;;;;;1910742;75;21045;-78
2021/07/07 10:43:36;;;;;;;5.58;0.95;;;21.00;99.90;;;;;;1910756;75;21157;-78
2021/07/07 10:46:02;;;;;;;2.83;1.27;;;21.00;99.90;;;;;;1910655;75;21164;-77
2021/07/07 10:48:28;;;;;;;1.57;0.70;;;21.10;99.90;;;;;;1910738;75;21092;-78
2021/07/07 10:50:55;;;;;;;1.32;0.65;;;21.10;99.90;;;;;;1910870;75;21039;-78
2021/07/07 10:53:21;;;;;;;1.47;0.80;;;21.20;99.90;;;;;;1910768;75;21086;-78
2021/07/07 10:55:47;;;;;;;6.60;3.22;;;21.10;99.90;;;;;;1911213;75;21043;-79
2021/07/07 10:58:16;;;;;;;2.22;1.07;;;20.90;99.90;;;;;;1911324;75;21415;-79
2021/07/07 11:00:41;;;;;;;1.22;0.70;;;21.00;99.90;;;;;;1910618;75;21090;-77
2021/07/07 11:03:31;;;;;;;;;;;;;;;;;;;;;
2021/07/07 11:05:53;;;;;;;1.15;0.90;;;21.60;99.90;;;;;;1887815;75;21495;-77
2021/07/07 11:08:19;;;;;;;1.57;0.90;;;20.90;99.90;;;;;;1909263;74;21169;-78
2021/07/07 11:10:51;;;;;;;1.25;0.80;;;20.80;99.90;;;;;;1909970;75;21071;-77
2021/07/07 11:13:29;;;;;;;;;;;;;;;;;;;;;
2021/07/07 11:26:00;;;;;;;4.37;0.85;;;21.50;99.90;;;;;;1932207;74;21139;-74
2021/07/07 11:28:26;;;;;;;2.33;0.60;;;21.60;99.90;;;;;;1901984;74;21122;-78
2021/07/07 11:30:52;;;;;;;2.75;0.80;;;21.50;99.90;;;;;;1900719;75;21214;-76
2021/07/07 11:33:18;;;;;;;2.27;0.90;;;21.30;99.90;;;;;;1900443;75;21063;-76
2021/07/07 11:35:47;;;;;;;2.27;1.30;;;21.30;99.90;;;;;;1901071;75;21152;-83
2021/07/07 11:38:12;;;;;;;3.72;1.10;;;21.70;99.90;;;;;;1902604;75;21092;-85
2021/07/07 11:40:38;;;;;;;4.42;1.07;;;21.40;99.90;;;;;;1902562;75;21059;-83
2021/07/07 11:43:05;;;;;;;1.00;0.88;;;21.20;99.90;;;;;;1902329;75;21530;-84
2021/07/07 11:45:31;;;;;;;5.25;1.17;;;20.60;99.90;;;;;;1902013;75;21431;-84
2021/07/07 11:48:01;;;;;;;0.80;0.70;;;20.90;99.90;;;;;;1902118;75;21145;-83
2021/07/07 11:50:26;;;;;;;2.20;0.80;;;20.90;99.90;;;;;;1901722;75;21551;-80
2021/07/07 11:52:52;;;;;;;1.70;1.00;;;20.70;99.90;;;;;;1902203;75;21117;-85
2021/07/07 11:55:18;;;;;;;0.95;0.80;;;20.50;99.90;;;;;;1901358;75;21158;-84
2021/07/07 11:57:44;;;;;;;1.30;1.12;;;20.80;99.90;;;;;;1901118;75;21059;-84
2021/07/07 12:00:10;;;;;;;2.30;0.90;;;21.40;99.90;;;;;;1901136;75;21024;-85
2021/07/07 12:02:37;;;;;;;1.45;0.95;;;21.90;99.90;;;;;;1901491;75;21112;-84
2021/07/07 12:05:03;;;;;;;2.77;0.80;;;22.10;99.90;;;;;;1901678;75;21026;-85
2021/07/07 12:07:29;;;;;;;3.37;1.20;;;22.20;99.90;;;;;;1903051;73;21103;-84
2021/07/07 12:09:55;;;;;;;2.52;0.93;;;22.10;99.90;;;;;;1901543;75;21574;-84
2021/07/07 12:12:22;;;;;;;5.40;1.00;;;22.10;99.90;;;;;;1915938;73;21450;-84
2021/07/07 12:14:48;;;;;;;2.15;0.88;;;21.90;99.90;;;;;;1914937;74;21103;-83
2021/07/07 12:17:17;;;;;;;3.08;0.90;;;22.40;99.90;;;;;;1902943;75;21007;-84
2021/07/07 12:19:42;;;;;;;1.20;0.80;;;22.70;99.90;;;;;;1901397;75;21550;-84
2021/07/07 12:22:09;;;;;;;3.83;1.05;;;22.60;99.90;;;;;;1901325;75;21491;-84
2021/07/07 12:24:35;;;;;;;1.17;0.85;;;22.60;99.90;;;;;;1905104;73;21246;-85
2021/07/07 12:27:01;;;;;;;3.02;1.00;;;22.70;99.90;;;;;;1902400;74;21093;-82
2021/07/07 12:29:29;;;;;;;4.67;1.00;;;22.80;99.90;;;;;;1918187;73;21180;-84
2021/07/07 12:31:55;;;;;;;3.20;1.02;;;23.10;99.90;;;;;;1920675;74;21080;-86
2021/07/07 12:34:21;;;;;;;4.10;0.85;;;23.50;99.90;;;;;;1906635;74;21074;-85
2021/07/07 12:36:47;;;;;;;1.10;0.62;;;23.80;99.90;;;;;;1902138;75;21194;-86
2021/07/07 12:39:14;;;;;;;1.40;0.80;;;23.70;99.90;;;;;;1901401;75;21032;-86
2021/07/07 12:41:40;;;;;;;2.17;1.02;;;23.50;99.90;;;;;;1901250;75;21074;-85
2021/07/07 12:44:12;;;;;;;0.95;0.78;;;22.90;99.90;;;;;;1901817;75;21106;-87
2021/07/07 12:46:38;;;;;;;2.25;0.90;;;22.80;99.90;;;;;;1901849;75;21171;-86
2021/07/07 12:49:04;;;;;;;4.47;1.00;;;23.30;99.90;;;;;;1902103;75;21063;-88
2021/07/07 12:51:31;;;;;;;0.88;0.70;;;23.60;99.90;;;;;;1902381;75;21007;-88
2021/07/07 12:53:57;;;;;;;1.60;0.70;;;24.10;99.90;;;;;;1902336;75;21035;-88
2021/07/07 12:56:24;;;;;;;1.02;0.70;;;24.60;99.90;;;;;;1902677;75;21038;-88
2021/07/07 12:58:51;;;;;;;4.17;0.47;;;25.40;99.90;;;;;;1902776;75;21055;-89